»·PEaware :: N701DB KMRY-KSAN

N701DB :: KMRY-KSAN

FLIGHT INFORMATION

Flight Status: Arrived
Operator: Privately registered:
United States
More flights under this callsign
Pilot: Ryan B. (8502)
Aircraft: GULFSTREAM G-1159C GULFSTREAM 4
(GLF4)
More flights by this aircraft type
Origin: KMRY Monterey Peninsula
United States
Destination: KSAN San Diego Intl-Lindbergh
United States
More flights between these airports :: More routes between these airports
Route: +SERFR MCKEY LAX COMIX1
File this flight plan on PilotEdge
Remarks:
Altitude:
(Current/Filed)
35,000ft
Speed:
(Current/Filed)
500kts
Departed: 04-Nov-17 03:22 PM
Arrived: 04-Nov-17 04:23 PM
Distance/Time
Traveled:
326nm/1:00
Distance/Time
To Go:
Arrived

Flight Plot

Page will automatically refresh every two minutes.

Flight plan parsing failed; only flown route is shown


Map Options




Map Legend


Flown Route
Filed Route
Departure Airport
Arrival Airport
Navaid (VOR, NDB)
Fix

Horizontal Profiles

Position Reports

Time Latitude Longitude Heading Altitude Ground
Speed
04-Nov-17 15:14 36.588738 -121.856960 359 166ft 0kts
04-Nov-17 15:15 36.588738 -121.856960 359 166ft 0kts
04-Nov-17 15:16 36.588738 -121.856960 359 166ft 0kts
04-Nov-17 15:17 36.588738 -121.856960 359 166ft 0kts
04-Nov-17 15:18 36.588738 -121.856960 359 166ft 0kts
04-Nov-17 15:19 36.588738 -121.856960 359 166ft 0kts
04-Nov-17 15:20 36.588738 -121.856960 359 166ft 0kts
04-Nov-17 15:21 36.588738 -121.856960 359 166ft 0kts
04-Nov-17 15:22 36.588738 -121.856960 359 166ft 0kts
04-Nov-17 15:23 36.589392 -121.856040 74 164ft 11kts
04-Nov-17 15:24 36.588202 -121.850440 114 180ft 25kts
04-Nov-17 15:25 36.584541 -121.840024 112 247ft 33kts
04-Nov-17 15:26 36.583316 -121.833260 316 227ft 2kts
04-Nov-17 15:27 36.603321 -121.876516 334 3451ft 273kts
04-Nov-17 15:28 36.681842 -121.903553 341 12685ft 312kts
04-Nov-17 15:29 36.765643 -121.860412 67 18531ft 415kts
04-Nov-17 15:30 36.728779 -121.739145 156 24109ft 413kts
04-Nov-17 15:31 36.622693 -121.678032 163 29052ft 439kts
04-Nov-17 15:32 36.509176 -121.613520 163 33104ft 466kts
04-Nov-17 15:33 36.389071 -121.545657 163 35476ft 487kts
04-Nov-17 15:34 36.266084 -121.476234 163 37052ft 492kts
04-Nov-17 15:35 36.144214 -121.407462 163 38940ft 483kts
04-Nov-17 15:36 36.020568 -121.341658 166 39068ft 492kts
04-Nov-17 15:37 35.894795 -121.280771 166 39047ft 492kts
04-Nov-17 15:38 35.768644 -121.219988 166 39055ft 492kts
04-Nov-17 15:39 35.641875 -121.159061 167 39054ft 492kts
04-Nov-17 15:40 35.515227 -121.097052 161 39051ft 497kts
04-Nov-17 15:41 35.418604 -120.968348 133 39057ft 537kts
04-Nov-17 15:42 35.335916 -120.822734 133 39056ft 539kts
04-Nov-17 15:43 35.250588 -120.672616 133 39058ft 539kts
04-Nov-17 15:44 35.165304 -120.523228 133 39060ft 539kts
04-Nov-17 15:45 35.079871 -120.374196 133 39068ft 539kts
04-Nov-17 15:46 34.996953 -120.230083 134 39054ft 537kts
04-Nov-17 15:47 34.911603 -120.082410 135 39044ft 534kts
04-Nov-17 15:48 34.841953 -119.962427 135 39050ft 533kts
04-Nov-17 15:49 34.742258 -119.791334 135 39052ft 533kts
04-Nov-17 15:50 34.656965 -119.645595 135 39054ft 533kts
04-Nov-17 15:51 34.585620 -119.524135 135 39055ft 533kts
04-Nov-17 15:52 34.485420 -119.354255 135 39052ft 534kts
04-Nov-17 15:53 34.415570 -119.236303 136 39030ft 531kts
04-Nov-17 15:54 34.329761 -119.091928 135 39033ft 532kts
04-Nov-17 15:55 34.230032 -118.924838 136 39034ft 532kts
04-Nov-17 15:56 34.158219 -118.805005 136 39039ft 532kts
04-Nov-17 15:57 34.071862 -118.661470 136 39046ft 531kts
04-Nov-17 15:58 33.986185 -118.519620 136 39047ft 532kts
04-Nov-17 15:59 33.898052 -118.385494 145 38237ft 494kts
04-Nov-17 16:00 33.812968 -118.276506 144 33785ft 500kts
04-Nov-17 16:01 33.721861 -118.157609 143 30420ft 475kts
04-Nov-17 16:02 33.634920 -118.043653 142 27485ft 459kts
04-Nov-17 16:03 33.550355 -117.933513 144 25345ft 441kts
04-Nov-17 16:04 33.464159 -117.833117 144 23256ft 427kts
04-Nov-17 16:05 33.381680 -117.733925 141 21202ft 416kts
04-Nov-17 16:06 33.302146 -117.637188 140 19191ft 404kts
04-Nov-17 16:07 33.219525 -117.553282 150 16864ft 383kts
04-Nov-17 16:08 33.134412 -117.481593 149 14598ft 370kts
04-Nov-17 16:09 33.052140 -117.412971 147 12146ft 356kts
04-Nov-17 16:10 32.975027 -117.348019 147 10085ft 312kts
04-Nov-17 16:11 32.909301 -117.293008 147 8108ft 288kts
04-Nov-17 16:12 32.853689 -117.246692 146 7016ft 256kts
04-Nov-17 16:13 32.807949 -117.181925 111 6697ft 262kts
04-Nov-17 16:14 32.791153 -117.104291 101 5508ft 231kts
04-Nov-17 16:15 32.781766 -117.039878 100 5001ft 220kts
04-Nov-17 16:16 32.773415 -116.983325 100 4984ft 223kts
04-Nov-17 16:17 32.765846 -116.932869 100 5003ft 243kts
04-Nov-17 16:18 32.758020 -116.881633 100 4993ft 254kts
04-Nov-17 16:19 32.740038 -116.832134 158 5015ft 246kts
04-Nov-17 16:20 32.693757 -116.847849 214 4807ft 206kts
04-Nov-17 16:21 32.671388 -116.906915 256 3780ft 198kts
04-Nov-17 16:22 32.679180 -116.965784 286 3699ft 178kts
04-Nov-17 16:23 32.691764 -117.017798 286 2976ft 179kts
04-Nov-17 16:24 32.705488 -117.074098 286 2036ft 177kts
04-Nov-17 16:25 32.717478 -117.121899 285 1773ft 127kts
04-Nov-17 16:26 32.725906 -117.158303 286 786ft 113kts
04-Nov-17 16:27 32.734002 -117.191522 285 21ft 67kts
04-Nov-17 16:28 32.733222 -117.192575 106 21ft 14kts

Navigation Log

Ident Type
Flight plan parsing failed, navigation log unavailable